^^

 

LIPY - Falconara (it-Af, Italy
Distance from station: NNO 36km
Dati ricevuti: 25/09/2022 14:50
Few Clouds
Few Clouds
 Vento da ESE
Vento: ESE 7 km/h
Temperatura: 22°C
P.to Rugiada: 15°C
Umidità: 65%
Barometro: 1010 hPa
Nuvole: Few Clouds
Visibility: 10 km
Cloud details: Few Clouds 7010 m
2022/09/25 12:50 LIPY 251250Z AUTO 12004KT 070V190 9999 FEW230/// 22/15 Q1010
LIVF - Frontone, Italy
Distance from station: ONO 64km
Dati ricevuti: 25/09/2022 14:55
Molto nuvoloso
Molto nuvoloso
 Vento da SSO
Vento: SSO 9 km/h
Temperatura: 20°C
P.to Rugiada: 13°C
Umidità: 64%
Barometro: 1011 hPa
Nuvole: Molto nuvoloso
Visibility: 10 km
Cloud details: Molto nuvoloso 610 m
2022/09/25 12:55 LIVF 251255Z 21005KT 9999 BKN020 20/13 Q1011
 
LIRZ - Perugia, Italy
Distance from station: OSO 80km
Dati ricevuti: 25/09/2022 15:20
Few Clouds
Few Clouds
 Vento da NNO
Vento: NNO 7 km/h
Temperatura: 21°C
P.to Rugiada: 17°C
Umidità: 78%
Barometro: 1010 hPa
Nuvole: Few Clouds
Visibility: 10 km
Cloud details: Few Clouds 3962 m
2022/09/25 13:20 LIRZ 251320Z AUTO 34004KT 9999 FEW130/// 21/17 Q1010
LIRK - Terminillo Mount, Italy
Distance from station: SSO 101km
Dati ricevuti: 25/09/2022 14:55

 Vento da ONO
Vento: ONO 15 km/h
Temperatura: 10°C
Temperatura Vento: 8°C
P.to Rugiada: 8°C
Umidità: 88%
Barometro: 1021 hPa
2022/09/25 12:55 LIRK 251255Z AUTO 29008KT //// 10/08 Q1021
 
LIPR - Rimini (civ/It-A, Italy
Distance from station: NO 104km
Dati ricevuti: 25/09/2022 15:20
Parz. nuvoloso
Parz. nuvoloso
 Vento da N
Vento: N 9 km/h
Temperatura: 19°C
P.to Rugiada: 16°C
Umidità: 83%
Barometro: 1011 hPa
Nuvole: Parz. nuvoloso
Visibility: 8 km
Cloud details: Parz. nuvoloso 762 m
2022/09/25 13:20 LIPR 251320Z 01005KT 8000 SCT025 19/16 Q1011
LIBP - Pescara, Italy
Distance from station: SSE 115km
Dati ricevuti: 25/09/2022 15:20
Molto nuvoloso
Molto nuvoloso
 Vento da NE
Vento: NE 7 km/h
Temperatura: 20°C
P.to Rugiada: 16°C
Umidità: 78%
Barometro: 1010 hPa
Nuvole: Molto nuvoloso
Visibility: 10 km
Cloud details: Molto nuvoloso 4877 m
2022/09/25 13:20 LIBP 251320Z AUTO 05004KT 9999 BKN160/// 20/16 Q1010